Time;durP1;ratioP1;P1;durP2;ratioP2;P2;SDS_P1;SDS_P2;PMS_P1;PMS_P2;Temp;Humidity;BMP_temperature;BMP_pressure;BME280_temperature;BME280_humidity;BME280_pressure;Samples;Min_cycle;Max_cycle;Signal;HPM_P1;HPM_P2
2023/08/10 00:00:34;;;;;;;5.47;3.20;;;;;;;15.47;77.64;101854.69;3609263;39;20046;-66
2023/08/10 00:02:59;;;;;;;6.55;2.92;;;;;;;15.46;77.67;101845.69;3611915;39;20316;-66
2023/08/10 00:05:25;;;;;;;3.47;2.90;;;;;;;15.24;77.77;101811.00;3617543;39;20153;-66
2023/08/10 00:07:51;;;;;;;7.45;3.50;;;;;;;15.55;77.01;101855.06;3614895;39;20379;-66
2023/08/10 00:10:16;;;;;;;6.75;3.67;;;;;;;15.57;76.95;101863.94;3611558;39;20416;-66
2023/08/10 00:12:42;;;;;;;5.38;2.88;;;;;;;15.60;77.42;101861.03;3614941;39;20046;-66
2023/08/10 00:15:08;;;;;;;8.05;3.42;;;;;;;15.64;76.73;101864.44;3615239;39;20297;-66
2023/08/10 00:17:34;;;;;;;4.43;2.97;;;;;;;15.65;77.43;101856.19;3614515;39;20357;-66
2023/08/10 00:20:00;;;;;;;3.40;3.05;;;;;;;15.61;77.14;101848.38;3612371;39;20067;-66
2023/08/10 00:22:26;;;;;;;7.90;3.40;;;;;;;15.61;77.54;101851.94;3614907;39;20066;-66
2023/08/10 00:24:51;;;;;;;4.60;2.78;;;;;;;15.70;77.89;101861.34;3612052;39;20062;-66
2023/08/10 00:27:17;;;;;;;6.15;3.00;;;;;;;15.70;77.32;101864.91;3615213;39;20070;-66
2023/08/10 00:29:44;;;;;;;7.63;3.30;;;;;;;15.72;77.20;101872.94;3614759;39;20131;-66
2023/08/10 00:32:09;;;;;;;3.33;2.83;;;;;;;15.75;77.32;101868.16;3612419;39;20411;-66
2023/08/10 00:34:35;;;;;;;4.72;3.13;;;;;;;15.75;76.80;101867.31;3611655;39;20051;-66
2023/08/10 00:37:01;;;;;;;3.75;3.03;;;;;;;15.80;76.90;101873.31;3613500;39;20058;-66
2023/08/10 00:39:27;;;;;;;4.60;3.30;;;;;;;15.81;76.55;101869.59;3612765;39;20054;-66
2023/08/10 00:41:53;;;;;;;4.88;3.10;;;;;;;15.80;76.74;101873.31;3616344;39;20100;-66
2023/08/10 00:44:19;;;;;;;6.90;3.25;;;;;;;15.79;77.50;101863.41;3611017;39;20453;-66
2023/08/10 00:46:46;;;;;;;4.43;2.75;;;;;;;15.55;77.50;101817.13;3613848;39;20054;-66
2023/08/10 00:49:11;;;;;;;5.72;3.22;;;;;;;15.75;78.20;101864.59;3614340;39;20093;-66
2023/08/10 00:51:38;;;;;;;5.95;3.30;;;;;;;15.75;77.67;101859.16;3614186;39;20057;-66
2023/08/10 00:54:06;;;;;;;9.05;3.40;;;;;;;15.69;77.28;101846.03;3612562;39;20062;-66
2023/08/10 00:56:32;;;;;;;3.92;2.97;;;;;;;15.70;77.62;101858.63;3613339;39;20118;-66
2023/08/10 00:58:58;;;;;;;4.55;3.40;;;;;;;15.68;78.32;101850.59;3612559;39;20059;-66
2023/08/10 01:01:24;;;;;;;4.70;3.40;;;;;;;15.64;77.97;101859.00;3613026;39;20065;-66
2023/08/10 01:03:50;;;;;;;6.70;3.25;;;;;;;15.63;78.12;101854.53;3613371;39;20638;-66
2023/08/10 01:06:43;;;;;;;6.78;3.50;;;;;;;15.63;78.49;101851.81;3611021;39;20055;-66
2023/08/10 01:09:33;;;;;;;6.53;3.50;;;;;;;15.62;77.81;101856.38;3601398;39;20046;-66
2023/08/10 01:12:09;;;;;;;5.35;3.47;;;;;;;15.65;78.38;101858.03;3613832;39;20103;-66
2023/08/10 01:14:55;;;;;;;5.28;3.85;;;;;;;15.07;78.73;101768.78;3613285;39;20055;-66
2023/08/10 01:17:34;;;;;;;5.63;3.65;;;;;;;15.56;79.05;101862.19;3612562;39;20059;-66
2023/08/10 01:20:04;;;;;;;4.25;3.15;;;;;;;15.36;79.62;101822.88;3615302;39;20134;-66
2023/08/10 01:22:51;;;;;;;4.60;3.78;;;;;;;15.52;79.67;101864.25;3611621;39;20059;-66
2023/08/10 01:25:17;;;;;;;5.78;3.53;;;;;;;15.53;79.75;101865.97;3617902;39;20062;-66
2023/08/10 01:27:44;;;;;;;6.65;3.65;;;;;;;15.35;79.71;101832.00;3616903;39;20308;-66
2023/08/10 01:30:11;;;;;;;4.18;3.45;;;;;;;15.49;79.28;101860.88;3614410;39;20087;-65
2023/08/10 01:32:37;;;;;;;4.05;3.28;;;;;;;15.49;79.60;101867.16;3616521;39;20413;-66
2023/08/10 01:35:06;;;;;;;5.68;3.40;;;;;;;15.43;79.79;101851.31;3616762;39;20127;-66
2023/08/10 01:37:33;;;;;;;5.10;3.38;;;;;;;15.48;79.29;101865.44;3615194;39;20051;-66
2023/08/10 01:40:00;;;;;;;5.03;3.85;;;;;;;15.46;78.79;101863.78;3616804;39;20166;-66
2023/08/10 01:42:26;;;;;;;16.02;4.47;;;;;;;15.44;79.48;101869.28;3616983;39;20061;-66
2023/08/10 01:44:52;;;;;;;6.15;4.10;;;;;;;15.42;79.28;101865.84;3613442;39;20443;-66
2023/08/10 01:47:27;;;;;;;9.05;3.95;;;;;;;15.39;79.57;101865.16;3613977;39;20059;-66
2023/08/10 01:49:58;;;;;;;7.50;4.00;;;;;;;15.33;79.98;101861.03;3612905;39;20063;-66
2023/08/10 01:52:43;;;;;;;6.18;4.07;;;;;;;15.17;80.00;101844.03;3615276;39;20607;-65
2023/08/10 01:55:09;;;;;;;5.65;4.45;;;;;;;15.24;80.34;101861.63;3615891;39;20081;-65
2023/08/10 01:57:37;;;;;;;6.15;4.28;;;;;;;15.04;80.89;101844.81;3614879;39;20059;-66
2023/08/10 02:00:06;;;;;;;6.20;4.15;;;;;;;15.01;81.33;101844.16;3613428;39;20275;-66
2023/08/10 02:02:32;;;;;;;5.78;4.00;;;;;;;15.04;81.33;101861.06;3613930;39;20051;-66
2023/08/10 02:04:58;;;;;;;6.70;4.32;;;;;;;14.97;81.46;101859.72;3606995;39;20047;-66
2023/08/10 02:07:25;;;;;;;6.88;4.43;;;;;;;14.96;81.79;101865.22;3613817;39;20053;-66
2023/08/10 02:09:51;;;;;;;9.63;4.03;;;;;;;14.90;81.62;101866.47;3613581;39;20043;-66
2023/08/10 02:12:17;;;;;;;7.15;4.50;;;;;;;14.85;82.81;101866.78;3614562;39;20069;-65
2023/08/10 02:14:42;;;;;;;4.47;3.90;;;;;;;14.79;83.06;101866.31;3612586;39;20324;-66
2023/08/10 02:17:08;;;;;;;6.47;4.13;;;;;;;14.73;84.30;101866.69;3613185;39;20054;-65
2023/08/10 02:19:34;;;;;;;4.72;3.90;;;;;;;14.68;84.16;101858.84;3612779;39;20051;-66
2023/08/10 02:21:59;;;;;;;6.90;3.83;;;;;;;14.68;84.49;101868.78;3616213;39;20065;-66
2023/08/10 02:24:25;;;;;;;6.63;4.25;;;;;;;14.67;84.69;101869.78;3613329;39;20062;-66
2023/08/10 02:26:51;;;;;;;7.22;4.38;;;;;;;14.63;84.88;101872.66;3618439;39;20262;-66
2023/08/10 02:29:16;;;;;;;6.35;4.50;;;;;;;14.57;85.52;101861.34;3612796;39;20564;-66
2023/08/10 02:31:42;;;;;;;7.82;4.47;;;;;;;14.57;84.98;101873.03;3613370;39;20152;-65
2023/08/10 02:34:08;;;;;;;7.55;5.15;;;;;;;14.56;85.25;101879.44;3613190;39;20051;-66
2023/08/10 02:36:34;;;;;;;6.18;4.40;;;;;;;14.52;85.05;101864.31;3615375;39;20301;-66
2023/08/10 02:39:00;;;;;;;5.55;4.40;;;;;;;14.53;85.24;101873.34;3612601;39;20063;-65
2023/08/10 02:41:26;;;;;;;5.82;4.63;;;;;;;14.52;85.14;101864.31;3615455;39;20450;-66
2023/08/10 02:43:51;;;;;;;6.43;4.38;;;;;;;14.49;84.89;101869.03;3615454;39;20054;-66
2023/08/10 02:46:17;;;;;;;5.93;4.72;;;;;;;14.46;85.16;101872.81;3613538;39;20102;-66
2023/08/10 02:48:43;;;;;;;6.88;4.57;;;;;;;14.44;85.21;101869.31;3614844;39;20059;-65
2023/08/10 02:51:09;;;;;;;11.13;5.03;;;;;;;14.25;85.19;101856.06;3613943;39;20318;-65
2023/08/10 02:53:34;;;;;;;5.97;4.75;;;;;;;14.34;85.58;101871.72;3613003;39;20062;-65
2023/08/10 02:56:00;;;;;;;6.82;5.22;;;;;;;14.27;85.64;101864.06;3614073;39;20812;-65
2023/08/10 02:58:26;;;;;;;9.07;5.38;;;;;;;14.30;86.17;101875.59;3613983;39;20050;-66
2023/08/10 03:00:51;;;;;;;6.85;4.97;;;;;;;14.27;86.15;101869.47;3614119;39;20057;-66
2023/08/10 03:03:18;;;;;;;5.45;4.80;;;;;;;14.26;85.63;101878.56;3615316;39;20077;-66
2023/08/10 03:05:43;;;;;;;7.03;5.05;;;;;;;14.22;86.13;101875.16;3614833;39;20078;-66
2023/08/10 03:08:10;;;;;;;8.00;5.28;;;;;;;14.17;86.33;101875.44;3614056;39;20622;-66
2023/08/10 03:10:36;;;;;;;7.78;5.20;;;;;;;14.19;86.67;101882.59;3616719;39;20043;-66
2023/08/10 03:13:02;;;;;;;9.65;5.63;;;;;;;13.62;86.51;101789.53;3614157;39;20039;-66
2023/08/10 03:15:28;;;;;;;8.48;5.15;;;;;;;14.16;86.94;101879.09;3614479;39;20393;-66
2023/08/10 03:17:54;;;;;;;9.05;5.43;;;;;;;14.15;86.40;101888.19;3616240;39;20050;-66
2023/08/10 03:20:20;;;;;;;6.93;5.25;;;;;;;14.13;86.95;101890.09;3613873;39;20062;-66
2023/08/10 03:22:46;;;;;;;8.27;5.60;;;;;;;14.12;86.82;101887.50;3618660;39;20051;-66
2023/08/10 03:25:12;;;;;;;7.70;5.50;;;;;;;14.07;87.06;101885.06;3611554;39;20115;-66
2023/08/10 03:27:38;;;;;;;7.30;5.78;;;;;;;14.11;86.94;101889.34;3615108;39;20330;-66
2023/08/10 03:30:04;;;;;;;8.82;5.75;;;;;;;14.07;87.18;101879.66;3613634;39;20058;-66
2023/08/10 03:32:30;;;;;;;7.90;5.60;;;;;;;14.15;86.47;101884.63;3614888;39;20342;-66
2023/08/10 03:34:56;;;;;;;9.23;5.70;;;;;;;14.12;86.43;101882.97;3612394;39;20053;-66
2023/08/10 03:37:21;;;;;;;7.22;5.00;;;;;;;14.09;87.23;101883.16;3617272;39;20070;-66
2023/08/10 03:39:47;;;;;;;6.75;5.88;;;;;;;14.03;87.11;101872.69;3616147;39;20050;-66
2023/08/10 03:42:12;;;;;;;9.10;5.63;;;;;;;14.01;87.03;101874.63;3616279;39;20058;-66
2023/08/10 03:44:38;;;;;;;8.95;5.72;;;;;;;14.00;88.00;101877.41;3614153;39;20088;-67
2023/08/10 03:47:04;;;;;;;9.02;5.28;;;;;;;13.98;87.86;101877.50;3614581;39;20407;-66
2023/08/10 03:49:30;;;;;;;8.57;5.82;;;;;;;13.97;88.29;101889.28;3615273;39;20087;-66
2023/08/10 03:51:56;;;;;;;8.93;5.82;;;;;;;13.97;88.13;101874.91;3612020;39;20077;-65
2023/08/10 03:54:22;;;;;;;8.40;6.00;;;;;;;13.93;88.50;101887.72;3612227;39;20054;-66
2023/08/10 03:56:48;;;;;;;8.73;5.82;;;;;;;13.94;88.62;101884.06;3617314;39;20348;-66
2023/08/10 03:59:14;;;;;;;9.90;5.68;;;;;;;13.92;88.73;101888.66;3612730;39;20405;-66
2023/08/10 04:01:41;;;;;;;8.05;5.53;;;;;;;13.92;88.84;101885.97;3611855;39;20054;-67
2023/08/10 04:04:07;;;;;;;7.68;5.72;;;;;;;13.91;89.22;101882.41;3615656;39;20057;-66
2023/08/10 04:06:32;;;;;;;10.25;5.47;;;;;;;13.92;89.38;101885.97;3616575;39;20293;-66
2023/08/10 04:08:58;;;;;;;8.07;5.88;;;;;;;13.75;89.04;101859.06;3613565;39;20446;-66
2023/08/10 04:11:24;;;;;;;8.88;5.75;;;;;;;13.85;89.12;101888.16;3616955;39;20054;-66
2023/08/10 04:13:50;;;;;;;9.07;5.03;;;;;;;13.84;89.11;101893.69;3621338;39;20104;-66
2023/08/10 04:16:16;;;;;;;10.63;5.97;;;;;;;13.83;89.06;101886.53;3615506;39;21283;-66
2023/08/10 04:18:42;;;;;;;10.68;5.50;;;;;;;13.82;88.66;101890.19;3613514;39;20043;-67
2023/08/10 04:21:08;;;;;;;7.32;5.70;;;;;;;13.86;89.03;101899.84;3615043;39;20058;-66
2023/08/10 04:23:35;;;;;;;7.30;5.32;;;;;;;13.87;89.20;101898.91;3615109;39;20105;-67
2023/08/10 04:26:00;;;;;;;7.63;5.25;;;;;;;13.85;89.29;101896.28;3615921;39;20369;-67
2023/08/10 04:28:26;;;;;;;9.15;5.60;;;;;;;13.84;89.14;101893.69;3618559;39;20128;-67
2023/08/10 04:30:52;;;;;;;9.23;5.80;;;;;;;13.78;89.52;101894.91;3611965;39;20332;-67
2023/08/10 04:33:18;;;;;;;6.57;5.32;;;;;;;13.78;89.71;101903.00;3613874;39;20096;-67
2023/08/10 04:35:43;;;;;;;8.18;5.47;;;;;;;13.79;90.13;101907.44;3614455;39;20339;-67
2023/08/10 04:38:10;;;;;;;8.68;5.88;;;;;;;13.80;90.04;101905.63;3612995;39;20046;-67
2023/08/10 04:40:36;;;;;;;7.78;5.95;;;;;;;13.83;89.93;101902.75;3615119;39;20050;-67
2023/08/10 04:43:01;;;;;;;7.43;6.20;;;;;;;13.86;89.98;101905.25;3615022;39;20056;-67
2023/08/10 04:45:27;;;;;;;6.50;5.90;;;;;;;13.89;89.61;101918.59;3615942;39;20050;-67
2023/08/10 04:47:53;;;;;;;8.75;6.07;;;;;;;13.90;90.07;101909.53;3614757;39;20352;-67
2023/08/10 04:50:18;;;;;;;9.45;5.70;;;;;;;13.88;89.36;101917.72;3611651;39;20289;-67
2023/08/10 04:52:44;;;;;;;7.35;6.05;;;;;;;13.89;89.50;101919.47;3612094;39;20051;-67
2023/08/10 04:55:13;;;;;;;9.20;6.10;;;;;;;13.89;89.77;101913.19;3614305;39;20047;-67
2023/08/10 04:57:39;;;;;;;9.75;6.80;;;;;;;13.96;89.96;101921.84;3617211;39;20051;-67
2023/08/10 05:00:09;;;;;;;6.75;5.70;;;;;;;14.01;90.33;101917.88;3612662;39;20050;-66
2023/08/10 05:02:36;;;;;;;9.55;6.57;;;;;;;13.83;90.85;101875.72;3617921;39;20342;-67
2023/08/10 05:05:04;;;;;;;9.95;6.45;;;;;;;14.20;90.79;101922.19;3618105;39;20050;-67
2023/08/10 05:07:31;;;;;;;8.10;6.05;;;;;;;14.08;90.76;101880.53;3618345;39;20085;-67
2023/08/10 05:09:57;;;;;;;8.63;6.45;;;;;;;14.39;90.10;101922.81;3617897;39;20050;-67
2023/08/10 05:12:23;;;;;;;8.55;6.35;;;;;;;14.44;89.58;101918.03;3615796;39;20090;-67
2023/08/10 05:14:49;;;;;;;6.75;5.57;;;;;;;14.06;89.39;101844.63;3616314;39;20055;-67
2023/08/10 05:17:15;;;;;;;8.05;6.40;;;;;;;14.52;89.29;101923.84;3616525;39;21791;-67
2023/08/10 05:19:40;;;;;;;7.00;5.70;;;;;;;14.58;89.51;101917.22;3613356;39;20055;-67
2023/08/10 05:22:06;;;;;;;10.85;5.85;;;;;;;14.63;89.06;101915.97;3614154;39;20070;-67
2023/08/10 05:24:34;;;;;;;9.70;6.30;;;;;;;14.68;88.95;101918.38;3616991;39;20058;-67
2023/08/10 05:27:01;;;;;;;7.30;5.93;;;;;;;14.72;88.57;101924.50;3615376;39;20082;-67
2023/08/10 05:29:26;;;;;;;7.43;6.22;;;;;;;14.73;89.28;101926.22;3614260;39;20366;-67
2023/08/10 05:31:52;;;;;;;11.40;6.13;;;;;;;14.76;90.16;101923.34;3616782;39;20047;-67
2023/08/10 05:34:17;;;;;;;8.32;6.38;;;;;;;14.80;89.45;101922.16;3617901;39;20071;-67
2023/08/10 05:36:43;;;;;;;9.40;5.90;;;;;;;14.81;89.18;101924.78;3613629;39;20055;-67
2023/08/10 05:39:09;;;;;;;10.20;6.30;;;;;;;14.83;89.57;101916.56;3612067;39;20189;-67
2023/08/10 05:41:34;;;;;;;8.85;5.90;;;;;;;14.90;89.19;101917.91;3612217;39;20207;-67
2023/08/10 05:44:00;;;;;;;11.32;6.55;;;;;;;14.79;89.72;101893.38;3617052;39;20426;-67
2023/08/10 05:46:26;;;;;;;9.20;6.07;;;;;;;14.90;89.09;101909.78;3616018;39;20094;-67
2023/08/10 05:48:51;;;;;;;8.35;6.30;;;;;;;15.01;89.64;101915.41;3617444;39;20054;-67
2023/08/10 05:51:17;;;;;;;10.13;6.70;;;;;;;15.06;89.10;101910.59;3616335;39;20355;-67
2023/08/10 05:53:43;;;;;;;8.48;6.03;;;;;;;15.09;88.32;101906.78;3614213;39;20049;-67
2023/08/10 05:56:10;;;;;;;8.70;6.53;;;;;;;15.08;88.01;101911.34;3615796;39;20312;-67
2023/08/10 05:58:35;;;;;;;9.20;6.57;;;;;;;15.07;88.20;101906.91;3614711;39;20112;-67
2023/08/10 06:01:01;;;;;;;8.50;6.55;;;;;;;15.12;88.67;101916.56;3614436;39;20055;-67
2023/08/10 06:03:27;;;;;;;7.90;6.50;;;;;;;15.18;88.36;101914.34;3616389;39;20055;-67
2023/08/10 06:05:54;;;;;;;9.25;6.55;;;;;;;15.25;88.37;101909.41;3613887;39;20051;-67
2023/08/10 06:08:20;;;;;;;10.70;7.03;;;;;;;15.30;88.65;101915.41;3617558;39;20452;-67
2023/08/10 06:10:49;;;;;;;9.18;7.45;;;;;;;15.39;88.43;101919.38;3614943;39;20300;-67
2023/08/10 06:13:17;;;;;;;10.85;7.07;;;;;;;15.46;88.30;101916.13;3616841;39;20840;-67
2023/08/10 06:15:45;;;;;;;11.35;6.95;;;;;;;15.59;87.25;101924.34;3618052;39;20309;-67
2023/08/10 06:18:11;;;;;;;9.43;7.10;;;;;;;15.71;87.47;101920.00;3613408;39;21218;-67
2023/08/10 06:20:37;;;;;;;10.50;8.15;;;;;;;15.81;86.06;101918.41;3613991;39;20382;-67
2023/08/10 06:23:03;;;;;;;13.90;7.72;;;;;;;15.96;85.44;101921.94;3612239;39;20063;-67
2023/08/10 06:25:30;;;;;;;10.40;7.05;;;;;;;16.08;85.97;101915.69;3616898;39;20057;-67
2023/08/10 06:27:57;;;;;;;11.85;7.32;;;;;;;16.20;85.13;101922.13;3613946;39;20098;-67
2023/08/10 06:30:25;;;;;;;11.73;6.80;;;;;;;16.26;83.86;101932.56;3612145;39;20050;-67
2023/08/10 06:32:51;;;;;;;11.07;7.20;;;;;;;16.34;84.03;101930.19;3614666;39;20458;-67
2023/08/10 06:35:20;;;;;;;9.98;6.35;;;;;;;16.44;82.86;101928.59;3617721;39;20154;-67
2023/08/10 06:37:48;;;;;;;9.98;6.63;;;;;;;15.98;81.68;101836.81;3612995;39;20140;-67
2023/08/10 06:40:15;;;;;;;8.00;6.30;;;;;;;16.61;80.54;101926.53;3607991;39;20038;-67
2023/08/10 06:42:41;;;;;;;12.93;6.80;;;;;;;16.67;80.21;101924.25;3613667;39;20322;-67
2023/08/10 06:45:08;;;;;;;7.30;5.43;;;;;;;16.80;77.43;101916.16;3614209;39;20060;-67
2023/08/10 06:47:35;;;;;;;8.95;5.53;;;;;;;16.88;76.94;101913.78;3617022;39;20049;-67
2023/08/10 06:50:01;;;;;;;9.35;5.72;;;;;;;17.05;78.63;101911.69;3613356;39;20504;-67
2023/08/10 06:52:27;;;;;;;9.35;5.43;;;;;;;17.20;78.46;101912.44;3614613;39;20042;-67
2023/08/10 06:54:53;;;;;;;8.85;5.25;;;;;;;17.36;75.85;101910.34;3612097;39;20145;-68
2023/08/10 06:57:20;;;;;;;7.88;4.97;;;;;;;17.48;74.89;101900.44;3613438;39;20059;-67
2023/08/10 06:59:47;;;;;;;7.22;4.72;;;;;;;17.73;73.51;101911.22;3612805;39;20431;-67
2023/08/10 07:02:14;;;;;;;13.20;4.82;;;;;;;17.93;73.39;101908.88;3617049;39;20129;-67
2023/08/10 07:04:40;;;;;;;9.43;4.82;;;;;;;18.13;72.33;101913.66;3614564;39;20376;-67
2023/08/10 07:07:07;;;;;;;5.72;3.92;;;;;;;18.31;71.70;101908.66;3614454;39;20054;-67
2023/08/10 07:09:33;;;;;;;4.05;3.47;;;;;;;18.54;72.28;101917.75;3613305;39;20051;-67
2023/08/10 07:11:58;;;;;;;4.53;3.50;;;;;;;18.71;67.61;101919.16;3614194;39;20054;-67
2023/08/10 07:14:24;;;;;;;4.68;3.08;;;;;;;18.83;66.17;101911.91;3614325;39;20054;-67
2023/08/10 07:16:50;;;;;;;4.60;2.78;;;;;;;18.90;65.29;101903.13;3613947;39;20061;-68
2023/08/10 07:19:15;;;;;;;4.38;2.60;;;;;;;19.09;64.63;101913.41;3614842;39;20047;-67
2023/08/10 07:21:41;;;;;;;4.97;2.60;;;;;;;19.22;63.13;101907.84;3616168;39;20090;-67
2023/08/10 07:24:07;;;;;;;3.38;2.75;;;;;;;19.31;63.29;101908.94;3613961;39;20070;-67
2023/08/10 07:26:33;;;;;;;4.53;2.60;;;;;;;19.44;62.92;101923.28;3612087;39;20059;-67
2023/08/10 07:28:59;;;;;;;2.75;2.30;;;;;;;19.54;60.71;101928.91;3614551;39;20062;-67
2023/08/10 07:31:31;;;;;;;3.72;2.55;;;;;;;19.61;60.70;101920.06;3614073;39;20124;-67
2023/08/10 07:33:58;;;;;;;3.55;2.22;;;;;;;19.74;60.65;101905.44;3606976;39;20350;-67
2023/08/10 07:36:25;;;;;;;2.45;2.15;;;;;;;19.93;56.63;101920.13;3612186;39;20063;-67
2023/08/10 07:38:52;;;;;;;2.88;2.15;;;;;;;20.04;54.65;101921.94;3614615;39;20054;-67
2023/08/10 07:41:17;;;;;;;4.43;2.45;;;;;;;20.07;54.22;101901.72;3613906;39;20081;-67
2023/08/10 07:43:43;;;;;;;3.50;2.00;;;;;;;20.28;54.78;101918.16;3613581;39;20320;-65
2023/08/10 07:46:09;;;;;;;7.82;1.80;;;;;;;20.03;51.58;101870.22;3614105;39;20153;-65
2023/08/10 07:48:34;;;;;;;3.30;1.77;;;;;;;20.43;51.75;101921.44;3613121;39;20090;-65
2023/08/10 07:51:00;;;;;;;3.10;1.70;;;;;;;20.52;50.65;101924.25;3614496;39;20055;-65
2023/08/10 07:53:28;;;;;;;2.83;1.58;;;;;;;20.59;50.11;101924.59;3611905;39;20121;-65
2023/08/10 07:55:55;;;;;;;1.83;1.45;;;;;;;20.74;51.36;101916.91;3614373;39;20047;-65
2023/08/10 07:58:21;;;;;;;2.47;1.58;;;;;;;20.88;49.58;101922.03;3612926;39;20095;-65
2023/08/10 08:00:46;;;;;;;2.25;1.20;;;;;;;20.92;47.10;101923.50;3605433;39;20325;-64
2023/08/10 08:03:12;;;;;;;2.20;1.38;;;;;;;21.02;47.95;101923.53;3614368;39;20061;-65
2023/08/10 08:05:40;;;;;;;1.20;1.10;;;;;;;21.18;46.91;101923.03;3614501;39;20051;-65
2023/08/10 08:08:07;;;;;;;3.70;1.33;;;;;;;21.28;45.98;101919.38;3612963;39;20063;-65
2023/08/10 08:10:34;;;;;;;2.55;1.30;;;;;;;21.42;47.83;101909.94;3613631;39;20083;-66
2023/08/10 08:12:59;;;;;;;1.42;1.20;;;;;;;21.56;48.44;101911.41;3616407;39;20042;-65
2023/08/10 08:15:26;;;;;;;2.55;1.20;;;;;;;21.72;46.77;101910.84;3611409;39;20066;-65
2023/08/10 08:18:43;;;;;;;1.42;1.08;;;;;;;21.82;45.32;101916.34;3614327;39;20286;-66
2023/08/10 08:21:11;;;;;;;2.10;0.90;;;;;;;21.87;46.23;101909.44;3612131;39;20058;-65
2023/08/10 08:23:37;;;;;;;1.48;0.90;;;;;;;21.80;45.28;101891.88;3612731;39;20099;-65
2023/08/10 08:26:03;;;;;;;1.13;0.90;;;;;;;22.07;45.42;101914.94;3613808;39;20095;-65
2023/08/10 08:28:29;;;;;;;2.20;1.40;;;;;;;22.16;45.79;101897.69;3612713;39;20059;-66
2023/08/10 08:30:55;;;;;;;3.10;1.08;;;;;;;22.32;44.40;101914.41;3612938;39;20058;-65
2023/08/10 08:33:20;;;;;;;1.67;0.98;;;;;;;22.44;45.36;101915.97;3613907;39;20063;-65
2023/08/10 08:35:47;;;;;;;2.28;1.10;;;;;;;22.57;43.91;101923.88;3614700;39;20054;-65
2023/08/10 08:38:17;;;;;;;1.02;0.88;;;;;;;22.66;44.88;101924.91;3614527;39;20104;-65
2023/08/10 08:40:44;;;;;;;2.55;1.30;;;;;;;22.68;46.03;101909.19;3614673;39;20062;-65
2023/08/10 08:43:11;;;;;;;2.28;1.38;;;;;;;22.91;44.55;101918.78;3616404;39;20359;-65
2023/08/10 08:45:40;;;;;;;2.15;1.20;;;;;;;23.04;45.44;101917.63;3613848;39;20066;-65
2023/08/10 08:48:07;;;;;;;2.80;1.17;;;;;;;23.18;44.26;101925.34;3613216;39;20043;-64
2023/08/10 08:50:36;;;;;;;1.85;1.00;;;;;;;23.19;43.61;101920.75;3613200;39;20062;-65
2023/08/10 08:53:07;;;;;;;2.75;1.33;;;;;;;23.22;43.65;101924.03;3616472;39;20054;-65
2023/08/10 08:55:34;;;;;;;2.42;1.45;;;;;;;23.21;43.04;101911.31;3614170;39;20123;-66
2023/08/10 08:58:01;;;;;;;3.28;1.45;;;;;;;23.39;42.97;101915.00;3615692;39;20080;-66
2023/08/10 09:00:30;;;;;;;3.00;2.38;;;;;;;23.49;42.32;101920.44;3613954;39;20123;-66
2023/08/10 09:02:55;;;;;;;2.00;1.77;;;;;;;23.76;42.66;101922.34;3616939;39;20339;-66
2023/08/10 09:05:21;;;;;;;2.70;1.20;;;;;;;23.96;41.12;101922.22;3600909;39;20050;-66
2023/08/10 09:07:46;;;;;;;1.92;1.05;;;;;;;23.80;41.66;101914.66;3616971;39;20062;-66
2023/08/10 09:10:12;;;;;;;1.92;1.23;;;;;;;23.70;41.95;101911.13;3616653;39;20051;-64
2023/08/10 09:12:40;;;;;;;1.67;0.98;;;;;;;23.66;41.85;101898.66;3615618;39;20135;-66
2023/08/10 09:15:11;;;;;;;1.35;1.13;;;;;;;23.74;43.58;101905.16;3617926;39;20058;-66
2023/08/10 09:17:47;;;;;;;1.67;1.25;;;;;;;23.80;45.14;101907.28;3616314;39;20378;-66
2023/08/10 09:20:33;;;;;;;1.90;1.70;;;;;;;23.82;42.60;101905.25;3616725;39;20477;-66
2023/08/10 09:23:00;;;;;;;1.70;1.00;;;;;;;23.80;42.88;101904.53;3616657;39;20058;-66
2023/08/10 09:25:39;;;;;;;1.98;1.27;;;;;;;23.75;43.16;101904.13;3614112;39;20064;-66
2023/08/10 09:28:15;;;;;;;1.88;1.45;;;;;;;23.86;43.36;101906.66;3616001;39;20051;-67
2023/08/10 09:30:41;;;;;;;1.75;1.20;;;;;;;23.94;43.26;101905.88;3614115;39;20062;-66
2023/08/10 09:33:07;;;;;;;2.38;1.25;;;;;;;23.99;43.43;101905.41;3614517;39;20047;-66
2023/08/10 09:35:32;;;;;;;2.15;1.10;;;;;;;24.13;42.55;101909.47;3614447;39;20107;-66
2023/08/10 09:38:03;;;;;;;3.35;1.00;;;;;;;24.24;44.16;101901.03;3616984;39;20058;-66
2023/08/10 09:40:30;;;;;;;2.13;1.27;;;;;;;24.18;43.56;101894.25;3616434;39;20062;-67
2023/08/10 09:42:56;;;;;;;1.35;1.08;;;;;;;24.33;43.91;101903.69;3616602;39;20424;-66
2023/08/10 09:45:22;;;;;;;1.30;1.20;;;;;;;24.43;44.40;101902.75;3614684;39;20448;-66
2023/08/10 09:47:48;;;;;;;2.53;1.20;;;;;;;24.45;43.89;101906.19;3615818;39;20063;-66
2023/08/10 09:50:16;;;;;;;1.75;1.13;;;;;;;24.50;42.98;101914.84;3618179;39;20060;-65
2023/08/10 09:52:44;;;;;;;2.20;1.33;;;;;;;24.41;41.61;101904.75;3606494;39;20177;-66
2023/08/10 09:55:11;;;;;;;1.95;1.00;;;;;;;24.43;43.35;101898.13;3614983;39;20055;-66
2023/08/10 09:57:44;;;;;;;4.40;1.70;;;;;;;24.60;43.38;101899.09;3614144;39;20089;-66
2023/08/10 10:00:22;;;;;;;4.22;1.70;;;;;;;24.65;41.46;101906.88;3613588;39;20266;-66
2023/08/10 10:02:48;;;;;;;1.42;0.90;;;;;;;24.65;42.02;101907.75;3617359;39;20087;-66
2023/08/10 10:05:17;;;;;;;3.67;1.33;;;;;;;24.64;41.27;101906.00;3614361;39;20054;-66
2023/08/10 10:07:44;;;;;;;2.15;1.38;;;;;;;24.63;43.13;101903.41;3619214;39;20511;-66
2023/08/10 10:10:15;;;;;;;3.17;1.40;;;;;;;24.69;43.16;101903.63;3616440;39;20073;-66
2023/08/10 10:12:47;;;;;;;2.78;1.20;;;;;;;24.71;41.85;101896.09;3603151;39;20343;-65
2023/08/10 10:15:15;;;;;;;2.58;1.52;;;;;;;24.64;41.73;101916.13;3613550;39;20058;-66
2023/08/10 10:17:42;;;;;;;1.77;1.23;;;;;;;24.61;43.68;101917.34;3614746;39;20057;-65
2023/08/10 10:20:11;;;;;;;5.63;3.95;;;;;;;24.56;43.74;101916.94;3618834;39;20086;-65
2023/08/10 10:22:38;;;;;;;3.47;1.55;;;;;;;24.52;43.50;101912.81;3618923;39;20066;-66
2023/08/10 10:25:04;;;;;;;2.83;1.30;;;;;;;24.42;44.11;101918.38;3613534;39;20055;-66
2023/08/10 10:27:40;;;;;;;2.33;1.50;;;;;;;24.36;44.73;101912.59;3613552;39;20059;-66
2023/08/10 10:30:17;;;;;;;1.85;1.33;;;;;;;24.32;43.76;101915.66;3612792;39;20448;-66
2023/08/10 10:32:49;;;;;;;3.33;1.60;;;;;;;24.36;45.47;101918.09;3618281;39;20379;-66
2023/08/10 10:35:28;;;;;;;2.88;2.05;;;;;;;24.43;44.95;101903.63;3614778;39;20110;-66
2023/08/10 10:37:57;;;;;;;2.83;1.65;;;;;;;24.55;46.81;101904.22;3614723;39;20145;-66
2023/08/10 10:40:25;;;;;;;5.10;3.70;;;;;;;24.51;45.25;101875.31;3614473;39;20123;-66
2023/08/10 10:43:03;;;;;;;3.20;2.40;;;;;;;24.91;43.86;101902.22;3615517;39;20057;-66
2023/08/10 10:45:50;;;;;;;2.67;2.47;;;;;;;25.11;44.45;101889.09;3614049;39;20424;-66
2023/08/10 10:48:31;;;;;;;5.95;3.67;;;;;;;25.33;42.79;101901.44;3616269;39;20466;-66
2023/08/10 10:51:01;;;;;;;3.13;2.75;;;;;;;25.58;44.20;101905.16;3614168;39;20358;-66
2023/08/10 10:53:27;;;;;;;1.60;1.40;;;;;;;25.71;42.03;101885.41;3612746;39;20082;-65
2023/08/10 10:55:53;;;;;;;2.20;1.98;;;;;;;25.99;41.50;101891.50;3614221;39;20070;-66
2023/08/10 10:58:19;;;;;;;2.25;1.77;;;;;;;26.20;42.35;101881.88;3614613;39;20054;-66
2023/08/10 11:00:45;;;;;;;3.63;1.40;;;;;;;26.47;41.05;101883.44;3613585;39;20110;-65
2023/08/10 11:03:13;;;;;;;3.40;1.30;;;;;;;26.65;40.36;101894.31;3614258;39;20047;-66
2023/08/10 11:05:39;;;;;;;2.17;1.05;;;;;;;26.93;40.51;101890.09;3614588;39;20328;-65
2023/08/10 11:08:06;;;;;;;3.08;1.70;;;;;;;27.12;39.40;101882.44;3616355;39;20076;-65
2023/08/10 11:10:38;;;;;;;2.38;1.60;;;;;;;27.20;38.58;101887.97;3614515;39;20345;-66
2023/08/10 11:13:11;;;;;;;1.42;1.10;;;;;;;27.20;40.56;101888.81;3613894;39;20051;-66
2023/08/10 11:15:37;;;;;;;2.58;1.50;;;;;;;27.13;39.50;101890.56;3614427;39;20070;-66
2023/08/10 11:18:11;;;;;;;1.60;1.50;;;;;;;26.94;39.35;101883.53;3616515;39;20050;-66
2023/08/10 11:20:46;;;;;;;2.03;1.60;;;;;;;26.81;38.36;101878.56;3616032;39;20070;-66
2023/08/10 11:23:12;;;;;;;1.38;1.27;;;;;;;26.81;40.74;101883.25;3615741;39;20062;-66
2023/08/10 11:25:50;;;;;;;3.35;1.70;;;;;;;26.58;40.41;101875.69;3615919;39;20102;-66